sensor_id;sensor_type;location;lat;lon;timestamp;pressure;altitude;pressure_sealevel;temperature
15079;BMP180;6932;51.438;5.470;2023-08-30T00:00:42;100513.00;;;20.30
15079;BMP180;6932;51.438;5.470;2023-08-30T00:03:08;100517.00;;;20.30
15079;BMP180;6932;51.438;5.470;2023-08-30T00:05:34;100512.00;;;20.30
15079;BMP180;6932;51.438;5.470;2023-08-30T00:08:00;100514.00;;;20.20
15079;BMP180;6932;51.438;5.470;2023-08-30T00:10:25;100500.00;;;20.20
15079;BMP180;6932;51.438;5.470;2023-08-30T00:12:51;100506.00;;;20.20
15079;BMP180;6932;51.438;5.470;2023-08-30T00:15:17;100512.00;;;20.10
15079;BMP180;6932;51.438;5.470;2023-08-30T00:17:42;100502.00;;;20.10
15079;BMP180;6932;51.438;5.470;2023-08-30T00:20:09;100509.00;;;20.10
15079;BMP180;6932;51.438;5.470;2023-08-30T00:22:35;100503.00;;;20.10
15079;BMP180;6932;51.438;5.470;2023-08-30T00:25:05;100499.00;;;20.10
15079;BMP180;6932;51.438;5.470;2023-08-30T00:27:31;100494.00;;;20.00
15079;BMP180;6932;51.438;5.470;2023-08-30T00:29:56;100491.00;;;20.00
15079;BMP180;6932;51.438;5.470;2023-08-30T00:32:22;100492.00;;;20.00
15079;BMP180;6932;51.438;5.470;2023-08-30T00:34:51;100485.00;;;20.00
15079;BMP180;6932;51.438;5.470;2023-08-30T00:37:17;100490.00;;;20.00
15079;BMP180;6932;51.438;5.470;2023-08-30T00:39:43;100489.00;;;20.00
15079;BMP180;6932;51.438;5.470;2023-08-30T00:42:09;100486.00;;;20.00
15079;BMP180;6932;51.438;5.470;2023-08-30T00:44:35;100479.00;;;20.00
15079;BMP180;6932;51.438;5.470;2023-08-30T00:47:04;100480.00;;;20.00
15079;BMP180;6932;51.438;5.470;2023-08-30T00:49:33;100478.00;;;20.00
15079;BMP180;6932;51.438;5.470;2023-08-30T00:52:03;100478.00;;;19.90
15079;BMP180;6932;51.438;5.470;2023-08-30T00:54:30;100468.00;;;19.90
15079;BMP180;6932;51.438;5.470;2023-08-30T00:56:57;100473.00;;;19.80
15079;BMP180;6932;51.438;5.470;2023-08-30T00:59:24;100470.00;;;19.80
15079;BMP180;6932;51.438;5.470;2023-08-30T01:01:50;100467.00;;;19.70
15079;BMP180;6932;51.438;5.470;2023-08-30T01:04:16;100469.00;;;19.60
15079;BMP180;6932;51.438;5.470;2023-08-30T01:06:43;100472.00;;;19.50
15079;BMP180;6932;51.438;5.470;2023-08-30T01:09:09;100467.00;;;19.50
15079;BMP180;6932;51.438;5.470;2023-08-30T01:17:00;100467.00;;;19.30
15079;BMP180;6932;51.438;5.470;2023-08-30T01:19:56;100471.00;;;19.10
15079;BMP180;6932;51.438;5.470;2023-08-30T01:25:31;100459.00;;;19.00
15079;BMP180;6932;51.438;5.470;2023-08-30T01:28:04;100460.00;;;19.00
15079;BMP180;6932;51.438;5.470;2023-08-30T01:30:37;100456.00;;;19.00
15079;BMP180;6932;51.438;5.470;2023-08-30T01:33:04;100458.00;;;19.00
15079;BMP180;6932;51.438;5.470;2023-08-30T01:35:32;100452.00;;;19.00
15079;BMP180;6932;51.438;5.470;2023-08-30T01:38:05;100459.00;;;18.90
15079;BMP180;6932;51.438;5.470;2023-08-30T01:40:37;100462.00;;;18.90
15079;BMP180;6932;51.438;5.470;2023-08-30T01:43:06;100460.00;;;18.90
15079;BMP180;6932;51.438;5.470;2023-08-30T01:45:35;100462.00;;;18.90
15079;BMP180;6932;51.438;5.470;2023-08-30T01:48:03;100459.00;;;18.90
15079;BMP180;6932;51.438;5.470;2023-08-30T01:50:32;100454.00;;;18.90
15079;BMP180;6932;51.438;5.470;2023-08-30T01:52:59;100453.00;;;18.90
15079;BMP180;6932;51.438;5.470;2023-08-30T01:55:28;100462.00;;;18.80
15079;BMP180;6932;51.438;5.470;2023-08-30T01:57:55;100452.00;;;18.80
15079;BMP180;6932;51.438;5.470;2023-08-30T02:00:20;100453.00;;;18.80
15079;BMP180;6932;51.438;5.470;2023-08-30T02:02:48;100454.00;;;18.80
15079;BMP180;6932;51.438;5.470;2023-08-30T02:05:13;100454.00;;;18.70
15079;BMP180;6932;51.438;5.470;2023-08-30T02:08:01;100452.00;;;18.70
15079;BMP180;6932;51.438;5.470;2023-08-30T02:10:37;100448.00;;;18.70
15079;BMP180;6932;51.438;5.470;2023-08-30T02:13:06;100448.00;;;18.70
15079;BMP180;6932;51.438;5.470;2023-08-30T02:15:36;100446.00;;;18.70
15079;BMP180;6932;51.438;5.470;2023-08-30T02:18:05;100441.00;;;18.70
15079;BMP180;6932;51.438;5.470;2023-08-30T02:20:32;100454.00;;;18.80
15079;BMP180;6932;51.438;5.470;2023-08-30T02:23:01;100438.00;;;18.70
15079;BMP180;6932;51.438;5.470;2023-08-30T02:25:26;100441.00;;;18.80
15079;BMP180;6932;51.438;5.470;2023-08-30T02:27:52;100431.00;;;18.80
15079;BMP180;6932;51.438;5.470;2023-08-30T02:30:18;100438.00;;;18.80
15079;BMP180;6932;51.438;5.470;2023-08-30T02:32:44;100429.00;;;18.80
15079;BMP180;6932;51.438;5.470;2023-08-30T02:35:10;100430.00;;;18.80
15079;BMP180;6932;51.438;5.470;2023-08-30T02:37:35;100425.00;;;18.80
15079;BMP180;6932;51.438;5.470;2023-08-30T02:40:02;100426.00;;;18.80
15079;BMP180;6932;51.438;5.470;2023-08-30T02:42:29;100417.00;;;18.90
15079;BMP180;6932;51.438;5.470;2023-08-30T02:44:54;100432.00;;;18.90
15079;BMP180;6932;51.438;5.470;2023-08-30T02:47:20;100426.00;;;18.90
15079;BMP180;6932;51.438;5.470;2023-08-30T02:49:46;100426.00;;;18.90
15079;BMP180;6932;51.438;5.470;2023-08-30T02:52:11;100419.00;;;18.90
15079;BMP180;6932;51.438;5.470;2023-08-30T02:54:37;100422.00;;;18.90
15079;BMP180;6932;51.438;5.470;2023-08-30T02:57:03;100412.00;;;19.00
15079;BMP180;6932;51.438;5.470;2023-08-30T02:59:29;100409.00;;;19.00
15079;BMP180;6932;51.438;5.470;2023-08-30T03:01:55;100402.00;;;19.00
15079;BMP180;6932;51.438;5.470;2023-08-30T03:04:21;100394.00;;;19.00
15079;BMP180;6932;51.438;5.470;2023-08-30T03:06:46;100399.00;;;19.00
15079;BMP180;6932;51.438;5.470;2023-08-30T03:09:12;100405.00;;;19.00
15079;BMP180;6932;51.438;5.470;2023-08-30T03:11:38;100405.00;;;19.00
15079;BMP180;6932;51.438;5.470;2023-08-30T03:14:04;100401.00;;;19.00
15079;BMP180;6932;51.438;5.470;2023-08-30T03:16:29;100393.00;;;19.00
15079;BMP180;6932;51.438;5.470;2023-08-30T03:18:55;100403.00;;;19.00
15079;BMP180;6932;51.438;5.470;2023-08-30T03:21:21;100398.00;;;19.10
15079;BMP180;6932;51.438;5.470;2023-08-30T03:23:46;100399.00;;;19.00
15079;BMP180;6932;51.438;5.470;2023-08-30T03:26:16;100398.00;;;19.00
15079;BMP180;6932;51.438;5.470;2023-08-30T03:28:43;100392.00;;;19.00
15079;BMP180;6932;51.438;5.470;2023-08-30T03:31:20;100388.00;;;19.00
15079;BMP180;6932;51.438;5.470;2023-08-30T03:33:47;100384.00;;;19.10
15079;BMP180;6932;51.438;5.470;2023-08-30T03:36:16;100383.00;;;19.00
15079;BMP180;6932;51.438;5.470;2023-08-30T03:38:43;100377.00;;;19.10
15079;BMP180;6932;51.438;5.470;2023-08-30T03:41:11;100377.00;;;19.10
15079;BMP180;6932;51.438;5.470;2023-08-30T03:43:37;100361.00;;;19.10
15079;BMP180;6932;51.438;5.470;2023-08-30T03:46:03;100356.00;;;19.10
15079;BMP180;6932;51.438;5.470;2023-08-30T03:48:30;100343.00;;;19.10
15079;BMP180;6932;51.438;5.470;2023-08-30T03:50:56;100349.00;;;19.10
15079;BMP180;6932;51.438;5.470;2023-08-30T03:53:22;100334.00;;;19.10
15079;BMP180;6932;51.438;5.470;2023-08-30T03:55:48;100335.00;;;19.10
15079;BMP180;6932;51.438;5.470;2023-08-30T03:58:15;100317.00;;;19.10
15079;BMP180;6932;51.438;5.470;2023-08-30T04:00:41;100324.00;;;19.10
15079;BMP180;6932;51.438;5.470;2023-08-30T04:03:09;100321.00;;;19.10
15079;BMP180;6932;51.438;5.470;2023-08-30T04:05:36;100314.00;;;19.10
15079;BMP180;6932;51.438;5.470;2023-08-30T04:08:04;100314.00;;;19.10
15079;BMP180;6932;51.438;5.470;2023-08-30T04:13:03;100299.00;;;19.00
15079;BMP180;6932;51.438;5.470;2023-08-30T04:15:35;100305.00;;;19.00
15079;BMP180;6932;51.438;5.470;2023-08-30T04:18:03;100300.00;;;19.00
15079;BMP180;6932;51.438;5.470;2023-08-30T04:20:30;100300.00;;;19.00
15079;BMP180;6932;51.438;5.470;2023-08-30T04:22:56;100289.00;;;19.00
15079;BMP180;6932;51.438;5.470;2023-08-30T04:25:22;100296.00;;;19.00
15079;BMP180;6932;51.438;5.470;2023-08-30T04:27:48;100301.00;;;18.90
15079;BMP180;6932;51.438;5.470;2023-08-30T04:30:15;100291.00;;;18.90
15079;BMP180;6932;51.438;5.470;2023-08-30T04:32:41;100306.00;;;18.90
15079;BMP180;6932;51.438;5.470;2023-08-30T04:35:08;100297.00;;;18.90
15079;BMP180;6932;51.438;5.470;2023-08-30T04:37:33;100289.00;;;18.90
15079;BMP180;6932;51.438;5.470;2023-08-30T04:39:59;100288.00;;;18.90
15079;BMP180;6932;51.438;5.470;2023-08-30T04:42:26;100285.00;;;18.90
15079;BMP180;6932;51.438;5.470;2023-08-30T04:44:52;100291.00;;;18.90
15079;BMP180;6932;51.438;5.470;2023-08-30T04:47:20;100282.00;;;18.90
15079;BMP180;6932;51.438;5.470;2023-08-30T04:49:53;100280.00;;;18.90
15079;BMP180;6932;51.438;5.470;2023-08-30T04:52:19;100287.00;;;18.90
15079;BMP180;6932;51.438;5.470;2023-08-30T04:54:45;100277.00;;;18.90
15079;BMP180;6932;51.438;5.470;2023-08-30T04:57:12;100277.00;;;18.90
15079;BMP180;6932;51.438;5.470;2023-08-30T04:59:43;100275.00;;;18.90
15079;BMP180;6932;51.438;5.470;2023-08-30T05:02:09;100268.00;;;18.90
15079;BMP180;6932;51.438;5.470;2023-08-30T05:04:35;100281.00;;;18.90
15079;BMP180;6932;51.438;5.470;2023-08-30T05:07:01;100266.00;;;19.00
15079;BMP180;6932;51.438;5.470;2023-08-30T05:09:27;100268.00;;;19.00
15079;BMP180;6932;51.438;5.470;2023-08-30T05:11:53;100263.00;;;19.00
15079;BMP180;6932;51.438;5.470;2023-08-30T05:14:20;100256.00;;;19.00
15079;BMP180;6932;51.438;5.470;2023-08-30T05:16:46;100265.00;;;19.00
15079;BMP180;6932;51.438;5.470;2023-08-30T05:19:12;100261.00;;;19.00
15079;BMP180;6932;51.438;5.470;2023-08-30T05:21:38;100261.00;;;19.00
15079;BMP180;6932;51.438;5.470;2023-08-30T05:24:04;100257.00;;;19.00
15079;BMP180;6932;51.438;5.470;2023-08-30T05:26:33;100253.00;;;19.10
15079;BMP180;6932;51.438;5.470;2023-08-30T05:28:59;100256.00;;;19.10
15079;BMP180;6932;51.438;5.470;2023-08-30T05:31:24;100245.00;;;19.10
15079;BMP180;6932;51.438;5.470;2023-08-30T05:33:50;100256.00;;;19.10
15079;BMP180;6932;51.438;5.470;2023-08-30T05:36:17;100244.00;;;19.10
15079;BMP180;6932;51.438;5.470;2023-08-30T05:38:42;100240.00;;;19.10
15079;BMP180;6932;51.438;5.470;2023-08-30T05:41:09;100240.00;;;19.20
15079;BMP180;6932;51.438;5.470;2023-08-30T05:43:34;100231.00;;;19.20
15079;BMP180;6932;51.438;5.470;2023-08-30T05:46:00;100235.00;;;19.20
15079;BMP180;6932;51.438;5.470;2023-08-30T05:48:33;100236.00;;;19.20
15079;BMP180;6932;51.438;5.470;2023-08-30T05:50:58;100240.00;;;19.30
15079;BMP180;6932;51.438;5.470;2023-08-30T05:53:24;100228.00;;;19.30
15079;BMP180;6932;51.438;5.470;2023-08-30T05:55:50;100230.00;;;19.30
15079;BMP180;6932;51.438;5.470;2023-08-30T05:58:16;100215.00;;;19.30
15079;BMP180;6932;51.438;5.470;2023-08-30T06:00:44;100217.00;;;19.40
15079;BMP180;6932;51.438;5.470;2023-08-30T06:03:10;100211.00;;;19.40
15079;BMP180;6932;51.438;5.470;2023-08-30T06:05:36;100224.00;;;19.40
15079;BMP180;6932;51.438;5.470;2023-08-30T06:08:02;100212.00;;;19.40
15079;BMP180;6932;51.438;5.470;2023-08-30T06:10:28;100221.00;;;19.40
15079;BMP180;6932;51.438;5.470;2023-08-30T06:12:54;100215.00;;;19.50
15079;BMP180;6932;51.438;5.470;2023-08-30T06:15:19;100213.00;;;19.50
15079;BMP180;6932;51.438;5.470;2023-08-30T06:17:45;100211.00;;;19.50
15079;BMP180;6932;51.438;5.470;2023-08-30T06:20:12;100212.00;;;19.50
15079;BMP180;6932;51.438;5.470;2023-08-30T06:22:41;100209.00;;;19.60
15079;BMP180;6932;51.438;5.470;2023-08-30T06:25:09;100204.00;;;19.60
15079;BMP180;6932;51.438;5.470;2023-08-30T06:27:42;100196.00;;;19.60
15079;BMP180;6932;51.438;5.470;2023-08-30T06:30:11;100204.00;;;19.70
15079;BMP180;6932;51.438;5.470;2023-08-30T06:32:37;100197.00;;;19.70
15079;BMP180;6932;51.438;5.470;2023-08-30T06:35:03;100198.00;;;19.80
15079;BMP180;6932;51.438;5.470;2023-08-30T06:37:29;100194.00;;;19.80
15079;BMP180;6932;51.438;5.470;2023-08-30T06:39:55;100202.00;;;19.80
15079;BMP180;6932;51.438;5.470;2023-08-30T06:42:21;100214.00;;;19.90
15079;BMP180;6932;51.438;5.470;2023-08-30T06:44:46;100210.00;;;19.90
15079;BMP180;6932;51.438;5.470;2023-08-30T06:47:12;100222.00;;;20.00
15079;BMP180;6932;51.438;5.470;2023-08-30T06:49:38;100205.00;;;20.00
15079;BMP180;6932;51.438;5.470;2023-08-30T06:52:04;100194.00;;;20.00
15079;BMP180;6932;51.438;5.470;2023-08-30T06:54:34;100197.00;;;20.00
15079;BMP180;6932;51.438;5.470;2023-08-30T06:57:01;100197.00;;;20.00
15079;BMP180;6932;51.438;5.470;2023-08-30T06:59:27;100207.00;;;20.10
15079;BMP180;6932;51.438;5.470;2023-08-30T07:01:54;100203.00;;;20.10
15079;BMP180;6932;51.438;5.470;2023-08-30T07:04:20;100197.00;;;20.10
15079;BMP180;6932;51.438;5.470;2023-08-30T07:06:46;100212.00;;;20.10
15079;BMP180;6932;51.438;5.470;2023-08-30T07:09:11;100216.00;;;20.10
15079;BMP180;6932;51.438;5.470;2023-08-30T07:11:43;100203.00;;;20.10
15079;BMP180;6932;51.438;5.470;2023-08-30T07:14:13;100207.00;;;20.20
15079;BMP180;6932;51.438;5.470;2023-08-30T07:16:40;100203.00;;;20.20
15079;BMP180;6932;51.438;5.470;2023-08-30T07:19:06;100200.00;;;20.10
15079;BMP180;6932;51.438;5.470;2023-08-30T07:21:32;100191.00;;;20.10
15079;BMP180;6932;51.438;5.470;2023-08-30T07:24:00;100191.00;;;20.00
15079;BMP180;6932;51.438;5.470;2023-08-30T07:26:25;100196.00;;;20.00
15079;BMP180;6932;51.438;5.470;2023-08-30T07:28:51;100182.00;;;19.90
15079;BMP180;6932;51.438;5.470;2023-08-30T07:31:17;100184.00;;;19.90
15079;BMP180;6932;51.438;5.470;2023-08-30T07:33:44;100173.00;;;19.90
15079;BMP180;6932;51.438;5.470;2023-08-30T07:36:10;100176.00;;;19.80
15079;BMP180;6932;51.438;5.470;2023-08-30T07:38:37;100171.00;;;19.80
15079;BMP180;6932;51.438;5.470;2023-08-30T07:41:03;100164.00;;;19.80
15079;BMP180;6932;51.438;5.470;2023-08-30T07:43:29;100160.00;;;19.80
15079;BMP180;6932;51.438;5.470;2023-08-30T07:45:54;100151.00;;;19.70
15079;BMP180;6932;51.438;5.470;2023-08-30T07:48:20;100168.00;;;19.70
15079;BMP180;6932;51.438;5.470;2023-08-30T07:50:46;100149.00;;;19.70
15079;BMP180;6932;51.438;5.470;2023-08-30T07:53:12;100168.00;;;19.70
15079;BMP180;6932;51.438;5.470;2023-08-30T07:55:37;100158.00;;;19.70
15079;BMP180;6932;51.438;5.470;2023-08-30T07:58:03;100168.00;;;19.70
15079;BMP180;6932;51.438;5.470;2023-08-30T08:00:29;100149.00;;;19.70
15079;BMP180;6932;51.438;5.470;2023-08-30T08:02:55;100175.00;;;19.70
15079;BMP180;6932;51.438;5.470;2023-08-30T08:05:21;100160.00;;;19.70
15079;BMP180;6932;51.438;5.470;2023-08-30T08:07:52;100158.00;;;19.70
15079;BMP180;6932;51.438;5.470;2023-08-30T08:10:19;100150.00;;;19.70
15079;BMP180;6932;51.438;5.470;2023-08-30T08:12:45;100153.00;;;19.70
15079;BMP180;6932;51.438;5.470;2023-08-30T08:15:11;100160.00;;;19.70
15079;BMP180;6932;51.438;5.470;2023-08-30T08:17:37;100164.00;;;19.70
15079;BMP180;6932;51.438;5.470;2023-08-30T08:20:05;100157.00;;;19.70
15079;BMP180;6932;51.438;5.470;2023-08-30T08:22:31;100171.00;;;19.70
15079;BMP180;6932;51.438;5.470;2023-08-30T08:24:58;100163.00;;;19.70
15079;BMP180;6932;51.438;5.470;2023-08-30T08:27:27;100165.00;;;19.70
15079;BMP180;6932;51.438;5.470;2023-08-30T08:29:52;100166.00;;;19.70
15079;BMP180;6932;51.438;5.470;2023-08-30T08:32:18;100168.00;;;19.70
15079;BMP180;6932;51.438;5.470;2023-08-30T08:34:44;100172.00;;;19.70
15079;BMP180;6932;51.438;5.470;2023-08-30T08:37:09;100161.00;;;19.70
15079;BMP180;6932;51.438;5.470;2023-08-30T08:39:35;100162.00;;;19.70
15079;BMP180;6932;51.438;5.470;2023-08-30T08:42:03;100157.00;;;19.70
15079;BMP180;6932;51.438;5.470;2023-08-30T08:44:32;100165.00;;;19.70
15079;BMP180;6932;51.438;5.470;2023-08-30T08:47:00;100169.00;;;19.70
15079;BMP180;6932;51.438;5.470;2023-08-30T08:49:27;100150.00;;;19.80
15079;BMP180;6932;51.438;5.470;2023-08-30T08:51:54;100166.00;;;19.80
15079;BMP180;6932;51.438;5.470;2023-08-30T08:54:21;100163.00;;;19.80
15079;BMP180;6932;51.438;5.470;2023-08-30T08:56:47;100172.00;;;19.80
15079;BMP180;6932;51.438;5.470;2023-08-30T08:59:13;100163.00;;;19.80
15079;BMP180;6932;51.438;5.470;2023-08-30T09:01:39;100167.00;;;19.90
15079;BMP180;6932;51.438;5.470;2023-08-30T09:04:07;100176.00;;;19.90
15079;BMP180;6932;51.438;5.470;2023-08-30T09:06:35;100174.00;;;19.90
15079;BMP180;6932;51.438;5.470;2023-08-30T09:09:02;100179.00;;;19.90
15079;BMP180;6932;51.438;5.470;2023-08-30T09:11:29;100171.00;;;20.00
15079;BMP180;6932;51.438;5.470;2023-08-30T09:13:55;100176.00;;;20.00
15079;BMP180;6932;51.438;5.470;2023-08-30T09:16:21;100173.00;;;20.00
15079;BMP180;6932;51.438;5.470;2023-08-30T09:19:07;100179.00;;;20.00
15079;BMP180;6932;51.438;5.470;2023-08-30T09:21:34;100163.00;;;20.10
15079;BMP180;6932;51.438;5.470;2023-08-30T09:24:05;100183.00;;;20.10
15079;BMP180;6932;51.438;5.470;2023-08-30T09:26:33;100174.00;;;20.10
15079;BMP180;6932;51.438;5.470;2023-08-30T09:29:08;100173.00;;;20.10
15079;BMP180;6932;51.438;5.470;2023-08-30T09:31:38;100171.00;;;20.20
15079;BMP180;6932;51.438;5.470;2023-08-30T09:34:05;100166.00;;;20.20
15079;BMP180;6932;51.438;5.470;2023-08-30T09:36:43;100171.00;;;20.20
15079;BMP180;6932;51.438;5.470;2023-08-30T09:39:13;100167.00;;;20.20
15079;BMP180;6932;51.438;5.470;2023-08-30T09:41:45;100176.00;;;20.20
15079;BMP180;6932;51.438;5.470;2023-08-30T09:44:19;100172.00;;;20.20
15079;BMP180;6932;51.438;5.470;2023-08-30T09:46:49;100174.00;;;20.30
15079;BMP180;6932;51.438;5.470;2023-08-30T09:49:17;100171.00;;;20.30
15079;BMP180;6932;51.438;5.470;2023-08-30T09:51:47;100178.00;;;20.40
15079;BMP180;6932;51.438;5.470;2023-08-30T09:54:19;100180.00;;;20.40
15079;BMP180;6932;51.438;5.470;2023-08-30T09:56:46;100173.00;;;20.50
15079;BMP180;6932;51.438;5.470;2023-08-30T09:59:14;100169.00;;;20.60
15079;BMP180;6932;51.438;5.470;2023-08-30T10:01:42;100171.00;;;20.80
15079;BMP180;6932;51.438;5.470;2023-08-30T10:04:10;100165.00;;;20.90
15079;BMP180;6932;51.438;5.470;2023-08-30T10:06:39;100159.00;;;21.00
15079;BMP180;6932;51.438;5.470;2023-08-30T10:09:08;100156.00;;;21.10
15079;BMP180;6932;51.438;5.470;2023-08-30T10:11:36;100153.00;;;21.20
15079;BMP180;6932;51.438;5.470;2023-08-30T10:14:06;100145.00;;;21.30
15079;BMP180;6932;51.438;5.470;2023-08-30T10:16:47;100156.00;;;21.30
15079;BMP180;6932;51.438;5.470;2023-08-30T10:22:03;100148.00;;;21.40
15079;BMP180;6932;51.438;5.470;2023-08-30T10:24:54;100146.00;;;21.50
15079;BMP180;6932;51.438;5.470;2023-08-30T10:27:21;100142.00;;;21.60
15079;BMP180;6932;51.438;5.470;2023-08-30T10:29:50;100132.00;;;21.70
15079;BMP180;6932;51.438;5.470;2023-08-30T10:32:21;100134.00;;;21.70
15079;BMP180;6932;51.438;5.470;2023-08-30T10:34:49;100136.00;;;21.80
15079;BMP180;6932;51.438;5.470;2023-08-30T10:37:15;100138.00;;;21.90
15079;BMP180;6932;51.438;5.470;2023-08-30T10:39:48;100133.00;;;21.90
15079;BMP180;6932;51.438;5.470;2023-08-30T10:42:16;100136.00;;;22.00
15079;BMP180;6932;51.438;5.470;2023-08-30T10:44:57;100130.00;;;22.00
15079;BMP180;6932;51.438;5.470;2023-08-30T10:47:37;100129.00;;;22.10
15079;BMP180;6932;51.438;5.470;2023-08-30T10:50:12;100129.00;;;22.20
15079;BMP180;6932;51.438;5.470;2023-08-30T10:52:39;100130.00;;;22.40
15079;BMP180;6932;51.438;5.470;2023-08-30T10:55:11;100127.00;;;22.50
15079;BMP180;6932;51.438;5.470;2023-08-30T10:57:41;100133.00;;;22.60
15079;BMP180;6932;51.438;5.470;2023-08-30T11:02:52;100116.00;;;22.70
15079;BMP180;6932;51.438;5.470;2023-08-30T11:05:25;100121.00;;;22.80
15079;BMP180;6932;51.438;5.470;2023-08-30T11:07:52;100123.00;;;22.90
15079;BMP180;6932;51.438;5.470;2023-08-30T11:10:19;100126.00;;;23.00
15079;BMP180;6932;51.438;5.470;2023-08-30T11:12:46;100122.00;;;23.10
15079;BMP180;6932;51.438;5.470;2023-08-30T11:15:13;100128.00;;;23.20
15079;BMP180;6932;51.438;5.470;2023-08-30T11:17:40;100127.00;;;23.30
15079;BMP180;6932;51.438;5.470;2023-08-30T11:20:11;100124.00;;;23.40
15079;BMP180;6932;51.438;5.470;2023-08-30T11:22:41;100131.00;;;23.50
15079;BMP180;6932;51.438;5.470;2023-08-30T11:25:09;100135.00;;;23.60
15079;BMP180;6932;51.438;5.470;2023-08-30T11:27:36;100120.00;;;23.80
15079;BMP180;6932;51.438;5.470;2023-08-30T11:30:03;100124.00;;;23.90
15079;BMP180;6932;51.438;5.470;2023-08-30T11:32:39;100127.00;;;23.90
15079;BMP180;6932;51.438;5.470;2023-08-30T11:35:06;100122.00;;;24.00
15079;BMP180;6932;51.438;5.470;2023-08-30T11:37:32;100120.00;;;24.10
15079;BMP180;6932;51.438;5.470;2023-08-30T11:40:01;100119.00;;;24.20
15079;BMP180;6932;51.438;5.470;2023-08-30T11:42:27;100113.00;;;24.30
15079;BMP180;6932;51.438;5.470;2023-08-30T11:44:53;100128.00;;;24.30
15079;BMP180;6932;51.438;5.470;2023-08-30T11:47:26;100132.00;;;24.40
15079;BMP180;6932;51.438;5.470;2023-08-30T11:49:55;100133.00;;;24.40
15079;BMP180;6932;51.438;5.470;2023-08-30T11:52:22;100118.00;;;24.40
15079;BMP180;6932;51.438;5.470;2023-08-30T11:54:50;100116.00;;;24.40
15079;BMP180;6932;51.438;5.470;2023-08-30T11:57:16;100130.00;;;24.40
15079;BMP180;6932;51.438;5.470;2023-08-30T11:59:42;100127.00;;;24.40
15079;BMP180;6932;51.438;5.470;2023-08-30T12:02:09;100133.00;;;24.30
15079;BMP180;6932;51.438;5.470;2023-08-30T12:04:49;100128.00;;;24.20
15079;BMP180;6932;51.438;5.470;2023-08-30T12:07:23;100135.00;;;24.20
15079;BMP180;6932;51.438;5.470;2023-08-30T12:09:49;100135.00;;;24.20
15079;BMP180;6932;51.438;5.470;2023-08-30T12:12:15;100127.00;;;24.20
15079;BMP180;6932;51.438;5.470;2023-08-30T12:14:41;100134.00;;;24.30
15079;BMP180;6932;51.438;5.470;2023-08-30T12:17:08;100128.00;;;24.30
15079;BMP180;6932;51.438;5.470;2023-08-30T12:19:36;100134.00;;;24.40
15079;BMP180;6932;51.438;5.470;2023-08-30T12:22:06;100131.00;;;24.40
15079;BMP180;6932;51.438;5.470;2023-08-30T12:24:46;100122.00;;;24.50
15079;BMP180;6932;51.438;5.470;2023-08-30T12:27:13;100128.00;;;24.50
15079;BMP180;6932;51.438;5.470;2023-08-30T12:29:40;100117.00;;;24.50
15079;BMP180;6932;51.438;5.470;2023-08-30T12:32:07;100131.00;;;24.50
15079;BMP180;6932;51.438;5.470;2023-08-30T12:34:33;100140.00;;;24.50
15079;BMP180;6932;51.438;5.470;2023-08-30T12:36:59;100142.00;;;24.40
15079;BMP180;6932;51.438;5.470;2023-08-30T12:39:25;100140.00;;;24.40
15079;BMP180;6932;51.438;5.470;2023-08-30T12:41:51;100144.00;;;24.40
15079;BMP180;6932;51.438;5.470;2023-08-30T12:44:17;100140.00;;;24.50
15079;BMP180;6932;51.438;5.470;2023-08-30T12:46:42;100135.00;;;24.50
15079;BMP180;6932;51.438;5.470;2023-08-30T12:49:08;100149.00;;;24.60
15079;BMP180;6932;51.438;5.470;2023-08-30T12:51:34;100154.00;;;24.60
15079;BMP180;6932;51.438;5.470;2023-08-30T12:53:59;100153.00;;;24.60
15079;BMP180;6932;51.438;5.470;2023-08-30T12:56:25;100156.00;;;24.70
15079;BMP180;6932;51.438;5.470;2023-08-30T12:58:51;100151.00;;;24.70
15079;BMP180;6932;51.438;5.470;2023-08-30T13:01:17;100143.00;;;24.70
15079;BMP180;6932;51.438;5.470;2023-08-30T13:03:44;100145.00;;;24.60
15079;BMP180;6932;51.438;5.470;2023-08-30T13:06:10;100127.00;;;24.60
15079;BMP180;6932;51.438;5.470;2023-08-30T13:08:35;100140.00;;;24.70
15079;BMP180;6932;51.438;5.470;2023-08-30T13:11:01;100143.00;;;24.70
15079;BMP180;6932;51.438;5.470;2023-08-30T13:13:27;100145.00;;;24.70
15079;BMP180;6932;51.438;5.470;2023-08-30T13:15:52;100156.00;;;24.70
15079;BMP180;6932;51.438;5.470;2023-08-30T13:18:18;100154.00;;;24.60
15079;BMP180;6932;51.438;5.470;2023-08-30T13:20:44;100161.00;;;24.60
15079;BMP180;6932;51.438;5.470;2023-08-30T13:23:10;100164.00;;;24.60
15079;BMP180;6932;51.438;5.470;2023-08-30T13:25:40;100168.00;;;24.60
15079;BMP180;6932;51.438;5.470;2023-08-30T13:28:06;100157.00;;;24.50
15079;BMP180;6932;51.438;5.470;2023-08-30T13:30:33;100161.00;;;24.50
15079;BMP180;6932;51.438;5.470;2023-08-30T13:32:59;100157.00;;;24.50
15079;BMP180;6932;51.438;5.470;2023-08-30T13:35:24;100161.00;;;24.60
15079;BMP180;6932;51.438;5.470;2023-08-30T13:37:50;100150.00;;;24.60
15079;BMP180;6932;51.438;5.470;2023-08-30T13:40:16;100157.00;;;24.60
15079;BMP180;6932;51.438;5.470;2023-08-30T13:42:42;100159.00;;;24.60
15079;BMP180;6932;51.438;5.470;2023-08-30T13:45:09;100164.00;;;24.60
15079;BMP180;6932;51.438;5.470;2023-08-30T13:47:39;100155.00;;;24.60
15079;BMP180;6932;51.438;5.470;2023-08-30T13:50:05;100144.00;;;24.60
15079;BMP180;6932;51.438;5.470;2023-08-30T13:52:31;100149.00;;;24.60
15079;BMP180;6932;51.438;5.470;2023-08-30T13:54:58;100151.00;;;24.60
15079;BMP180;6932;51.438;5.470;2023-08-30T13:57:24;100157.00;;;24.60
15079;BMP180;6932;51.438;5.470;2023-08-30T13:59:50;100156.00;;;24.70
15079;BMP180;6932;51.438;5.470;2023-08-30T14:02:15;100171.00;;;24.70
15079;BMP180;6932;51.438;5.470;2023-08-30T14:04:41;100158.00;;;24.60
15079;BMP180;6932;51.438;5.470;2023-08-30T14:07:07;100160.00;;;24.70
15079;BMP180;6932;51.438;5.470;2023-08-30T14:09:33;100162.00;;;24.70
15079;BMP180;6932;51.438;5.470;2023-08-30T14:11:58;100171.00;;;24.70
15079;BMP180;6932;51.438;5.470;2023-08-30T14:14:24;100175.00;;;24.70
15079;BMP180;6932;51.438;5.470;2023-08-30T14:16:50;100169.00;;;24.70
15079;BMP180;6932;51.438;5.470;2023-08-30T14:19:16;100181.00;;;24.80
15079;BMP180;6932;51.438;5.470;2023-08-30T14:21:42;100174.00;;;24.80
15079;BMP180;6932;51.438;5.470;2023-08-30T14:24:08;100186.00;;;24.80
15079;BMP180;6932;51.438;5.470;2023-08-30T14:26:34;100179.00;;;24.80